Time;durP1;ratioP1;P1;durP2;ratioP2;P2;SDS_P1;SDS_P2;PMS_P1;PMS_P2;Temp;Humidity;BMP_temperature;BMP_pressure;BME280_temperature;BME280_humidity;BME280_pressure;Samples;Min_cycle;Max_cycle;Signal;HPM_P1;HPM_P2
2020/12/20 00:01:50;;;;;;;15.43;6.60;;;9.40;99.90;;;;;;5039256;28;39415;-77
2020/12/20 00:04:16;;;;;;;16.47;6.77;;;9.40;99.90;;;;;;5036586;28;39178;-77
2020/12/20 00:06:44;;;;;;;14.67;6.93;;;9.40;99.90;;;;;;5054845;28;40369;-77
2020/12/20 00:09:15;;;;;;;15.87;7.00;;;9.40;99.90;;;;;;5039023;28;40125;-76
2020/12/20 00:11:42;;;;;;;18.70;6.87;;;9.40;99.90;;;;;;5042565;28;39249;-76
2020/12/20 00:14:28;;;;;;;20.17;8.10;;;9.40;99.90;;;;;;5038189;28;37384;-76
2020/12/20 00:16:59;;;;;;;14.17;6.47;;;9.40;99.90;;;;;;5029618;28;37352;-76
2020/12/20 00:19:26;;;;;;;16.90;7.87;;;9.40;99.90;;;;;;5027624;28;39414;-77
2020/12/20 00:21:58;;;;;;;15.13;6.97;;;9.40;99.90;;;;;;5035329;28;38438;-77
2020/12/20 00:24:25;;;;;;;19.52;7.75;;;9.40;99.90;;;;;;5041987;28;36390;-77
2020/12/20 00:26:51;;;;;;;19.97;6.83;;;9.40;99.90;;;;;;5063408;28;40256;-77
2020/12/20 00:29:18;;;;;;;18.97;7.63;;;9.50;99.90;;;;;;5039763;28;38937;-78
2020/12/20 00:31:44;;;;;;;22.80;7.60;;;9.50;99.90;;;;;;5040284;28;39065;-77
2020/12/20 00:34:10;;;;;;;15.03;7.03;;;9.50;99.90;;;;;;5062782;28;37575;-77
2020/12/20 00:36:37;;;;;;;17.63;7.17;;;9.50;99.90;;;;;;5044901;28;38982;-77
2020/12/20 00:39:06;;;;;;;17.17;7.20;;;9.50;99.90;;;;;;5026691;28;38260;-77
2020/12/20 00:41:32;;;;;;;16.23;7.30;;;9.50;99.90;;;;;;5052011;28;38808;-77
2020/12/20 00:43:58;;;;;;;17.60;7.53;;;9.50;99.90;;;;;;5047365;28;37492;-77
2020/12/20 00:46:24;;;;;;;15.10;6.63;;;9.50;99.90;;;;;;5037188;28;38725;-78
2020/12/20 00:48:51;;;;;;;15.73;6.83;;;9.40;99.90;;;;;;5031404;28;37901;-78
2020/12/20 00:51:22;;;;;;;14.73;7.43;;;9.50;99.90;;;;;;5040697;28;38454;-77
2020/12/20 00:53:48;;;;;;;19.37;7.13;;;9.50;99.90;;;;;;5042986;28;37755;-77
2020/12/20 00:56:17;;;;;;;19.13;7.00;;;9.50;99.90;;;;;;5066901;28;38749;-78
2020/12/20 00:58:46;;;;;;;19.40;7.80;;;9.40;99.90;;;;;;5037643;28;39791;-78
2020/12/20 01:01:12;;;;;;;24.17;7.77;;;9.40;99.90;;;;;;5038441;28;38620;-78
2020/12/20 01:03:39;;;;;;;22.63;8.67;;;9.40;99.90;;;;;;5035492;28;38170;-78
2020/12/20 01:06:05;;;;;;;24.03;8.13;;;9.50;99.90;;;;;;5025165;28;37762;-77
2020/12/20 01:08:31;;;;;;;19.93;7.63;;;9.40;99.90;;;;;;5036124;28;38262;-77
2020/12/20 01:10:58;;;;;;;24.97;8.57;;;9.40;99.90;;;;;;5040707;28;38296;-78
2020/12/20 01:13:24;;;;;;;20.77;8.30;;;9.40;99.90;;;;;;5040610;28;38820;-77
2020/12/20 01:15:52;;;;;;;18.47;7.40;;;9.40;99.90;;;;;;5040388;28;39219;-78
2020/12/20 01:18:19;;;;;;;17.63;8.10;;;9.40;99.90;;;;;;5037737;28;38402;-78
2020/12/20 01:20:47;;;;;;;17.53;6.83;;;9.40;99.90;;;;;;5041438;28;38515;-78
2020/12/20 01:23:14;;;;;;;19.63;7.33;;;9.30;99.90;;;;;;5042452;28;38581;-79
2020/12/20 01:25:40;;;;;;;21.03;7.13;;;9.40;99.90;;;;;;5061728;28;39788;-77
2020/12/20 01:28:06;;;;;;;17.93;7.00;;;9.40;99.90;;;;;;5047772;28;39382;-77
2020/12/20 01:30:32;;;;;;;18.50;7.17;;;9.40;99.90;;;;;;5059780;28;38530;-77
2020/12/20 01:33:01;;;;;;;16.17;7.07;;;9.40;99.90;;;;;;5055820;28;37621;-77
2020/12/20 01:35:27;;;;;;;21.73;7.67;;;9.40;99.90;;;;;;5044286;28;48775;-77
2020/12/20 01:37:53;;;;;;;17.87;7.17;;;9.40;99.90;;;;;;5042501;28;39013;-77
2020/12/20 01:40:22;;;;;;;20.47;7.57;;;9.30;99.90;;;;;;5048461;28;38575;-78
2020/12/20 01:42:57;;;;;;;14.03;6.73;;;9.40;99.90;;;;;;5042767;28;37834;-78
2020/12/20 01:45:24;;;;;;;18.87;7.77;;;9.30;99.90;;;;;;5037483;28;38927;-78
2020/12/20 01:47:56;;;;;;;17.73;6.87;;;9.30;99.90;;;;;;5042623;28;39853;-78
2020/12/20 01:50:32;;;;;;;18.30;7.28;;;9.30;99.90;;;;;;5044167;28;38580;-77
2020/12/20 01:52:59;;;;;;;22.50;7.53;;;9.20;99.90;;;;;;5049212;28;38262;-77
2020/12/20 01:55:31;;;;;;;18.10;6.53;;;9.20;99.90;;;;;;5044636;28;38751;-77
2020/12/20 01:58:00;;;;;;;19.95;6.93;;;9.20;99.90;;;;;;5047470;28;37452;-78
2020/12/20 02:00:29;;;;;;;20.27;7.73;;;9.20;99.90;;;;;;5042219;28;37912;-77
2020/12/20 02:02:55;;;;;;;17.50;6.57;;;9.30;99.90;;;;;;5040815;28;36666;-78
2020/12/20 02:05:28;;;;;;;19.27;6.80;;;9.20;99.90;;;;;;5031819;28;38266;-78
2020/12/20 02:07:54;;;;;;;20.77;6.83;;;9.20;99.90;;;;;;5046341;28;38420;-78
2020/12/20 02:10:21;;;;;;;20.97;7.30;;;9.20;99.90;;;;;;5029443;28;38387;-78
2020/12/20 02:12:47;;;;;;;16.30;6.50;;;9.20;99.90;;;;;;5041940;28;37011;-78
2020/12/20 02:15:14;;;;;;;22.30;7.70;;;9.20;99.90;;;;;;5030227;28;38613;-77
2020/12/20 02:17:40;;;;;;;18.40;6.80;;;9.20;99.90;;;;;;5056588;28;40240;-77
2020/12/20 02:20:06;;;;;;;15.70;7.13;;;9.20;99.90;;;;;;5039688;28;38212;-78
2020/12/20 02:22:36;;;;;;;24.13;8.33;;;9.20;99.90;;;;;;5027824;28;37585;-77
2020/12/20 02:25:03;;;;;;;20.67;7.13;;;9.20;99.90;;;;;;5057954;28;40737;-78
2020/12/20 02:27:29;;;;;;;23.50;8.20;;;9.20;99.90;;;;;;5056504;28;49305;-76
2020/12/20 02:29:55;;;;;;;23.93;8.33;;;9.20;99.90;;;;;;5044386;28;39162;-77
2020/12/20 02:32:21;;;;;;;25.37;8.53;;;9.10;99.90;;;;;;5041683;28;38013;-77
2020/12/20 02:34:47;;;;;;;22.27;6.87;;;9.10;99.90;;;;;;5053112;28;38976;-77
2020/12/20 02:37:16;;;;;;;25.53;8.30;;;9.10;99.90;;;;;;5045413;28;38998;-78
2020/12/20 02:39:42;;;;;;;26.10;8.33;;;9.10;99.90;;;;;;5040251;28;39598;-77
2020/12/20 02:42:08;;;;;;;22.17;7.33;;;9.10;99.90;;;;;;5062375;28;38440;-78
2020/12/20 02:44:35;;;;;;;23.77;7.37;;;9.10;99.90;;;;;;5036466;28;40126;-78
2020/12/20 02:47:01;;;;;;;24.40;8.30;;;9.00;99.90;;;;;;5055022;28;38068;-77
2020/12/20 02:49:27;;;;;;;20.17;6.80;;;8.90;99.90;;;;;;5057200;28;38456;-78
2020/12/20 02:51:54;;;;;;;23.20;7.07;;;8.90;99.90;;;;;;5045295;28;37045;-78
2020/12/20 02:54:20;;;;;;;32.30;8.70;;;8.90;99.90;;;;;;5042462;28;37985;-78
2020/12/20 02:56:46;;;;;;;23.70;7.33;;;8.80;99.90;;;;;;5052378;28;40189;-77
2020/12/20 02:59:17;;;;;;;17.53;7.03;;;8.80;99.90;;;;;;5052266;28;37726;-77
2020/12/20 03:01:43;;;;;;;23.27;7.20;;;8.70;99.90;;;;;;5039201;28;38144;-77
2020/12/20 03:04:10;;;;;;;20.70;6.80;;;8.80;99.90;;;;;;5049275;28;37787;-78
2020/12/20 03:06:36;;;;;;;22.57;7.10;;;8.70;99.90;;;;;;5039580;28;37654;-77
2020/12/20 03:09:03;;;;;;;21.87;7.50;;;8.80;99.90;;;;;;5044528;28;37513;-77
2020/12/20 03:11:31;;;;;;;23.20;7.50;;;8.80;99.90;;;;;;5049036;28;36981;-77
2020/12/20 03:13:57;;;;;;;23.40;7.67;;;8.70;99.90;;;;;;5041892;28;39969;-78
2020/12/20 03:16:30;;;;;;;27.73;8.37;;;8.70;99.90;;;;;;5047665;28;39072;-78
2020/12/20 03:18:57;;;;;;;23.97;7.13;;;8.70;99.90;;;;;;5049318;28;36946;-78
2020/12/20 03:21:25;;;;;;;24.17;6.83;;;8.70;99.90;;;;;;5044687;28;37756;-78
2020/12/20 03:23:52;;;;;;;21.77;7.20;;;8.70;99.90;;;;;;5054849;28;37242;-77
2020/12/20 03:26:21;;;;;;;25.00;7.40;;;8.60;99.90;;;;;;5039230;28;39652;-77
2020/12/20 03:28:47;;;;;;;21.60;7.47;;;8.60;99.90;;;;;;5047338;28;37663;-78
2020/12/20 03:31:13;;;;;;;26.47;7.60;;;8.60;99.90;;;;;;5042069;28;38796;-77
2020/12/20 03:33:48;;;;;;;22.03;7.10;;;8.50;99.90;;;;;;5035119;28;37758;-78
2020/12/20 03:36:14;;;;;;;24.77;7.17;;;8.60;99.90;;;;;;5059315;28;38246;-77
2020/12/20 03:38:43;;;;;;;33.90;8.37;;;8.50;99.90;;;;;;5044823;28;36884;-77
2020/12/20 03:41:12;;;;;;;23.13;7.23;;;8.50;99.90;;;;;;5049155;28;37053;-77
2020/12/20 03:43:39;;;;;;;23.27;7.00;;;8.50;99.90;;;;;;5041135;28;42394;-77
2020/12/20 03:46:05;;;;;;;27.53;7.50;;;8.50;99.90;;;;;;5041405;28;38847;-78
2020/12/20 03:48:34;;;;;;;22.60;6.40;;;8.60;99.90;;;;;;5042989;28;38329;-77
2020/12/20 03:51:00;;;;;;;17.27;5.80;;;8.60;99.90;;;;;;5056245;28;37155;-77
2020/12/20 03:53:26;;;;;;;20.40;6.23;;;8.60;99.90;;;;;;5034266;28;38501;-78
2020/12/20 03:55:52;;;;;;;16.80;5.27;;;8.60;99.90;;;;;;5055017;28;38754;-78
2020/12/20 03:58:21;;;;;;;17.43;5.83;;;8.60;99.90;;;;;;5038945;28;37563;-78
2020/12/20 04:00:47;;;;;;;22.23;6.23;;;8.50;99.90;;;;;;5028841;28;36331;-78
2020/12/20 04:03:13;;;;;;;18.73;5.83;;;8.60;99.90;;;;;;5032582;28;39395;-78
2020/12/20 04:05:40;;;;;;;20.03;5.40;;;8.50;99.90;;;;;;5036169;28;39670;-78
2020/12/20 04:08:06;;;;;;;14.80;5.70;;;8.50;99.90;;;;;;5052111;28;39858;-78
2020/12/20 04:10:35;;;;;;;19.63;5.03;;;8.50;99.90;;;;;;5044015;28;37171;-77
2020/12/20 04:13:01;;;;;;;17.87;6.00;;;8.60;99.90;;;;;;5042408;28;39525;-77
2020/12/20 04:15:27;;;;;;;19.40;6.00;;;8.60;99.90;;;;;;5042612;28;39848;-77
2020/12/20 04:17:56;;;;;;;21.43;6.70;;;8.60;99.90;;;;;;5043911;28;37215;-77
2020/12/20 04:20:30;;;;;;;20.47;5.67;;;8.70;99.90;;;;;;5041358;28;37430;-78
2020/12/20 04:22:58;;;;;;;23.67;6.53;;;8.70;99.90;;;;;;5043923;28;39271;-78
2020/12/20 04:25:25;;;;;;;22.40;5.77;;;8.70;99.90;;;;;;5045761;28;38236;-78
2020/12/20 04:27:51;;;;;;;19.50;6.50;;;8.60;99.90;;;;;;5047453;28;38224;-78
2020/12/20 04:30:17;;;;;;;22.30;6.10;;;8.70;99.90;;;;;;5047725;28;37133;-78
2020/12/20 04:32:43;;;;;;;21.13;6.03;;;8.60;99.90;;;;;;5041169;28;37793;-78
2020/12/20 04:35:09;;;;;;;19.87;6.17;;;8.60;99.90;;;;;;5057911;28;37958;-78
2020/12/20 04:37:38;;;;;;;21.43;5.83;;;8.70;99.90;;;;;;5050159;28;37804;-78
2020/12/20 04:40:05;;;;;;;25.83;5.90;;;8.60;99.90;;;;;;5060787;28;38628;-77
2020/12/20 04:42:32;;;;;;;25.30;6.20;;;8.70;99.90;;;;;;5043924;28;39585;-77
2020/12/20 04:44:58;;;;;;;18.50;5.93;;;8.70;99.90;;;;;;5059779;28;38088;-77
2020/12/20 04:47:25;;;;;;;23.30;6.83;;;8.60;99.90;;;;;;5041148;28;39597;-78
2020/12/20 04:49:56;;;;;;;18.47;5.77;;;8.60;99.90;;;;;;5041109;28;37174;-78
2020/12/20 04:52:22;;;;;;;26.57;6.10;;;8.60;99.90;;;;;;5042192;28;37440;-77
2020/12/20 04:54:48;;;;;;;18.03;5.73;;;8.50;99.90;;;;;;5046465;28;38383;-78
2020/12/20 04:57:15;;;;;;;19.30;5.70;;;8.50;99.90;;;;;;5042355;28;38448;-77
2020/12/20 04:59:45;;;;;;;14.73;6.07;;;8.50;99.90;;;;;;5044779;28;36671;-78
2020/12/20 05:02:14;;;;;;;20.73;6.37;;;8.50;99.90;;;;;;5034876;28;38681;-77
2020/12/20 05:04:40;;;;;;;20.07;6.67;;;8.60;99.90;;;;;;5046095;28;38504;-77
2020/12/20 05:07:10;;;;;;;22.50;6.33;;;8.60;99.90;;;;;;5043515;28;36067;-78
2020/12/20 05:09:51;;;;;;;25.10;6.43;;;8.60;99.90;;;;;;5040110;28;36378;-77
2020/12/20 05:12:40;;;;;;;24.40;6.27;;;8.70;99.90;;;;;;5041428;28;37931;-78
2020/12/20 05:15:23;;;;;;;22.00;6.30;;;8.70;99.90;;;;;;5056421;28;39511;-77
2020/12/20 05:18:28;;;;;;;20.85;6.53;;;8.70;99.90;;;;;;5036777;28;38737;-76
2020/12/20 05:20:54;;;;;;;20.23;6.30;;;8.70;99.90;;;;;;5040263;28;48972;-77
2020/12/20 05:23:20;;;;;;;20.40;5.63;;;8.70;99.90;;;;;;5036615;28;37455;-78
2020/12/20 05:25:49;;;;;;;16.80;6.13;;;8.70;99.90;;;;;;5065074;28;38145;-77
2020/12/20 05:28:25;;;;;;;22.10;7.10;;;8.70;99.90;;;;;;5039737;28;38778;-77
2020/12/20 05:30:53;;;;;;;22.97;5.43;;;8.70;99.90;;;;;;5039033;28;38067;-77
2020/12/20 05:33:26;;;;;;;19.93;6.70;;;8.70;99.90;;;;;;5043641;28;38785;-78
2020/12/20 05:36:05;;;;;;;26.10;6.30;;;8.60;99.90;;;;;;5041916;28;40118;-77
2020/12/20 05:38:36;;;;;;;24.43;6.33;;;8.60;99.90;;;;;;5029257;28;49106;-77
2020/12/20 05:41:04;;;;;;;20.30;6.30;;;8.50;99.90;;;;;;5046226;28;37687;-77
2020/12/20 05:43:30;;;;;;;27.37;6.60;;;8.50;99.90;;;;;;5059249;28;39378;-77
2020/12/20 05:46:02;;;;;;;21.87;6.03;;;8.40;99.90;;;;;;5056719;28;39118;-77
2020/12/20 05:48:32;;;;;;;18.83;5.50;;;8.30;99.90;;;;;;5056513;28;47419;-76
2020/12/20 05:51:06;;;;;;;29.00;6.50;;;8.30;99.90;;;;;;5065812;28;36399;-78
2020/12/20 05:53:34;;;;;;;26.77;5.60;;;8.30;99.90;;;;;;5047568;28;49366;-77
2020/12/20 05:56:03;;;;;;;22.33;6.13;;;8.30;99.90;;;;;;5062174;28;38192;-77
2020/12/20 05:58:35;;;;;;;25.43;6.37;;;8.30;99.90;;;;;;5059449;28;49022;-78
2020/12/20 06:01:04;;;;;;;;;;;8.30;99.90;;;;;;5044377;28;37399;-77
2020/12/20 06:03:30;;;;;;;23.60;6.60;;;8.30;99.90;;;;;;5061404;28;38336;-77
2020/12/20 06:06:00;;;;;;;20.60;6.30;;;8.20;99.90;;;;;;5045464;28;39007;-78
2020/12/20 06:08:31;;;;;;;29.33;6.67;;;8.20;99.90;;;;;;5057411;28;37663;-78
2020/12/20 06:11:03;;;;;;;23.93;6.80;;;8.30;99.90;;;;;;5054973;28;39617;-78
2020/12/20 06:13:30;;;;;;;22.42;7.05;;;8.40;99.90;;;;;;5052196;28;49279;-78
2020/12/20 06:15:57;;;;;;;25.50;6.60;;;8.40;99.90;;;;;;5046006;28;38737;-78
2020/12/20 06:18:37;;;;;;;21.27;5.87;;;8.50;99.90;;;;;;5036773;28;38574;-77
2020/12/20 06:21:04;;;;;;;36.63;7.57;;;8.50;99.90;;;;;;5055092;28;36728;-78
2020/12/20 06:23:35;;;;;;;28.70;6.90;;;8.50;99.90;;;;;;5041575;28;40114;-78
2020/12/20 06:26:03;;;;;;;24.63;7.03;;;8.50;99.90;;;;;;5058633;28;38005;-78
2020/12/20 06:28:33;;;;;;;24.17;5.87;;;8.60;99.90;;;;;;5039030;28;47715;-78
2020/12/20 06:31:01;;;;;;;25.87;5.97;;;8.70;99.90;;;;;;5033816;28;38658;-78
2020/12/20 06:33:51;;;;;;;28.70;7.07;;;8.60;99.90;;;;;;5027376;28;48139;-77
2020/12/20 06:36:17;;;;;;;29.53;6.70;;;8.60;99.90;;;;;;5042729;28;38993;-77
2020/12/20 06:38:53;;;;;;;31.73;7.27;;;8.70;99.90;;;;;;5039024;28;39457;-77
2020/12/20 06:41:37;;;;;;;30.20;5.77;;;8.70;99.90;;;;;;5047172;28;36935;-77
2020/12/20 06:44:15;;;;;;;29.83;6.97;;;8.60;99.90;;;;;;5041889;28;39029;-77
2020/12/20 06:46:43;;;;;;;26.10;6.63;;;8.60;99.90;;;;;;5054152;28;37585;-77
2020/12/20 06:49:42;;;;;;;22.63;6.40;;;8.60;99.90;;;;;;5035880;28;37949;-77
2020/12/20 06:52:18;;;;;;;25.00;5.73;;;8.60;99.90;;;;;;5039615;28;36921;-77
2020/12/20 06:55:08;;;;;;;25.57;6.40;;;8.60;99.90;;;;;;5040124;28;39302;-77
2020/12/20 06:57:35;;;;;;;26.13;6.40;;;8.50;99.90;;;;;;5038782;28;47353;-78
2020/12/20 07:00:04;;;;;;;25.10;5.70;;;8.50;99.90;;;;;;5055906;28;37615;-77
2020/12/20 07:02:59;;;;;;;28.47;6.80;;;8.50;99.90;;;;;;5003582;28;36977;-78
2020/12/20 07:05:35;;;;;;;23.63;6.70;;;8.50;99.90;;;;;;5029411;28;37999;-77
2020/12/20 07:08:23;;;;;;;34.00;7.13;;;8.50;99.90;;;;;;5055361;28;38124;-77
2020/12/20 07:10:56;;;;;;;28.13;6.20;;;8.50;99.90;;;;;;5040123;28;48565;-77
2020/12/20 07:13:42;;;;;;;29.40;6.67;;;8.50;99.90;;;;;;5040475;28;37318;-78
2020/12/20 07:16:13;;;;;;;32.67;7.30;;;8.50;99.90;;;;;;5038666;28;38427;-78
2020/12/20 07:19:00;;;;;;;37.33;7.00;;;8.50;99.90;;;;;;5039128;28;38331;-78
2020/12/20 07:21:29;;;;;;;32.23;7.53;;;8.50;99.90;;;;;;5054218;28;38521;-78
2020/12/20 07:24:09;;;;;;;32.40;6.60;;;8.60;99.90;;;;;;5045185;28;37072;-78
2020/12/20 07:26:36;;;;;;;23.77;6.43;;;8.50;99.90;;;;;;5045335;28;47980;-78
2020/12/20 07:29:04;;;;;;;26.23;5.53;;;8.50;99.90;;;;;;5064901;28;38786;-77
2020/12/20 07:31:31;;;;;;;24.50;5.83;;;8.50;99.90;;;;;;5036471;28;48527;-78
2020/12/20 07:33:58;;;;;;;30.00;6.10;;;8.50;99.90;;;;;;5058838;28;34625;-78
2020/12/20 07:36:25;;;;;;;33.87;6.70;;;8.50;99.90;;;;;;5045286;28;38531;-77
2020/12/20 07:38:52;;;;;;;23.93;6.50;;;8.40;99.90;;;;;;5049471;28;38788;-78
2020/12/20 07:41:19;;;;;;;26.07;5.87;;;8.40;99.90;;;;;;5045312;28;38431;-76
2020/12/20 07:43:49;;;;;;;32.83;6.80;;;8.40;99.90;;;;;;5061007;28;37698;-77
2020/12/20 07:46:20;;;;;;;38.47;7.67;;;8.40;99.90;;;;;;5032912;28;38789;-77
2020/12/20 07:48:46;;;;;;;32.03;7.93;;;8.40;99.90;;;;;;5042118;28;39085;-77
2020/12/20 07:51:20;;;;;;;24.93;6.37;;;8.40;99.90;;;;;;5034804;28;39127;-78
2020/12/20 07:53:58;;;;;;;29.27;6.80;;;8.40;99.90;;;;;;5040750;28;37185;-77
2020/12/20 07:56:39;;;;;;;23.27;5.50;;;8.40;99.90;;;;;;5065750;28;41068;-77
2020/12/20 07:59:07;;;;;;;29.63;6.87;;;8.30;99.90;;;;;;5046407;28;38460;-77
2020/12/20 08:01:34;;;;;;;26.43;6.43;;;8.30;99.90;;;;;;5041770;28;38360;-77
2020/12/20 08:04:21;;;;;;;22.57;6.47;;;8.30;99.90;;;;;;5041347;28;37081;-77
2020/12/20 08:06:51;;;;;;;28.93;5.53;;;8.30;99.90;;;;;;5038938;28;48101;-77
2020/12/20 08:09:20;;;;;;;30.60;7.20;;;8.20;99.90;;;;;;5043958;28;38974;-77
2020/12/20 08:11:48;;;;;;;27.30;6.80;;;8.20;99.90;;;;;;5044712;28;42067;-77
2020/12/20 08:14:16;;;;;;;29.70;7.03;;;8.20;99.90;;;;;;5045844;28;38099;-77
2020/12/20 08:16:47;;;;;;;31.80;7.30;;;8.10;99.90;;;;;;5057936;28;37954;-77
2020/12/20 08:19:18;;;;;;;27.13;6.67;;;8.10;99.90;;;;;;5029485;28;37898;-77
2020/12/20 08:22:07;;;;;;;33.50;7.57;;;8.10;99.90;;;;;;5041349;28;38333;-77
2020/12/20 08:24:40;;;;;;;22.43;6.50;;;8.20;99.90;;;;;;5050781;28;46997;-77
2020/12/20 08:27:17;;;;;;;27.20;7.30;;;8.20;99.90;;;;;;5057090;28;39366;-77
2020/12/20 08:29:47;;;;;;;27.73;6.90;;;8.20;99.90;;;;;;5039202;28;37874;-77
2020/12/20 08:32:17;;;;;;;26.33;6.90;;;8.20;99.90;;;;;;5032720;28;40727;-77
2020/12/20 08:34:43;;;;;;;28.13;6.93;;;8.20;99.90;;;;;;5040602;28;38071;-76
2020/12/20 08:37:18;;;;;;;27.10;7.10;;;8.20;99.90;;;;;;5037546;28;39625;-77
2020/12/20 08:39:48;;;;;;;33.33;7.30;;;8.20;99.90;;;;;;5044884;28;39666;-77
2020/12/20 08:42:18;;;;;;;29.10;7.80;;;8.20;99.90;;;;;;5054985;28;40478;-78
2020/12/20 08:44:51;;;;;;;27.50;7.77;;;8.20;99.90;;;;;;5041608;28;35473;-77
2020/12/20 08:47:21;;;;;;;31.85;7.60;;;8.20;99.90;;;;;;5040468;28;40283;-77
2020/12/20 08:49:55;;;;;;;30.17;8.50;;;8.30;99.90;;;;;;5058228;28;39070;-77
2020/12/20 08:52:26;;;;;;;28.40;7.73;;;8.30;99.90;;;;;;5041213;28;38114;-77
2020/12/20 08:54:52;;;;;;;27.23;8.43;;;8.30;99.90;;;;;;5042297;28;39598;-77
2020/12/20 08:57:27;;;;;;;25.37;8.13;;;8.30;99.90;;;;;;5057970;28;37878;-78
2020/12/20 08:59:54;;;;;;;24.70;8.00;;;8.30;99.90;;;;;;5043712;28;40044;-77
2020/12/20 09:02:24;;;;;;;23.87;7.10;;;8.30;99.90;;;;;;5039721;28;38891;-77
2020/12/20 09:05:15;;;;;;;33.77;8.63;;;8.40;99.90;;;;;;5040888;28;37831;-77
2020/12/20 09:07:46;;;;;;;23.33;6.70;;;8.40;99.90;;;;;;5020091;28;47908;-76
2020/12/20 09:10:14;;;;;;;23.63;7.00;;;8.40;99.90;;;;;;5040638;28;39809;-77
2020/12/20 09:12:47;;;;;;;32.07;7.00;;;8.40;99.90;;;;;;5043649;28;37449;-78
2020/12/20 09:15:14;;;;;;;37.53;7.43;;;8.40;99.90;;;;;;5046350;28;38174;-77
2020/12/20 09:17:42;;;;;;;30.70;7.23;;;8.40;99.90;;;;;;5061061;28;39956;-77
2020/12/20 09:20:13;;;;;;;28.00;7.27;;;8.50;99.90;;;;;;5047071;28;39565;-77
2020/12/20 09:22:52;;;;;;;26.63;7.93;;;8.50;99.90;;;;;;5051182;28;38679;-77
2020/12/20 09:25:34;;;;;;;26.90;6.53;;;8.50;99.90;;;;;;5040973;28;36277;-76
2020/12/20 09:28:06;;;;;;;28.55;7.45;;;8.50;99.90;;;;;;5042040;28;38814;-76
2020/12/20 09:30:37;;;;;;;20.55;7.47;;;8.50;99.90;;;;;;5034802;28;49340;-76
2020/12/20 09:33:22;;;;;;;28.83;8.00;;;8.60;99.90;;;;;;5039300;28;39985;-75
2020/12/20 09:35:52;;;;;;;33.30;8.70;;;8.60;99.90;;;;;;5037392;28;37371;-75
2020/12/20 09:38:18;;;;;;;31.57;8.70;;;8.60;99.90;;;;;;5039506;28;38043;-75
2020/12/20 09:40:44;;;;;;;27.17;8.70;;;8.60;99.90;;;;;;5028677;28;39022;-77
2020/12/20 09:43:20;;;;;;;30.60;7.90;;;8.60;99.90;;;;;;5050510;28;37810;-76
2020/12/20 09:45:46;;;;;;;34.90;9.43;;;8.60;99.90;;;;;;5056184;28;35999;-76
2020/12/20 09:48:13;;;;;;;39.27;9.60;;;8.70;99.90;;;;;;5053650;28;38196;-77
2020/12/20 09:50:39;;;;;;;32.07;9.27;;;8.70;99.90;;;;;;5057612;28;38636;-76
2020/12/20 09:53:08;;;;;;;33.17;10.23;;;8.70;99.90;;;;;;5041002;28;38241;-76
2020/12/20 09:55:42;;;;;;;28.57;9.13;;;8.80;99.90;;;;;;5033930;28;40100;-77
2020/12/20 09:58:20;;;;;;;39.37;10.37;;;8.70;99.90;;;;;;5027694;28;38275;-77
2020/12/20 10:00:49;;;;;;;29.13;8.93;;;8.70;99.90;;;;;;5048352;28;37869;-78
2020/12/20 10:03:24;;;;;;;30.90;10.60;;;8.70;99.90;;;;;;5036079;28;39165;-77
2020/12/20 10:06:19;;;;;;;40.47;10.17;;;8.70;99.90;;;;;;5048276;28;36654;-78
2020/12/20 10:08:48;;;;;;;30.10;9.30;;;8.80;99.90;;;;;;5050810;28;48746;-75
2020/12/20 10:11:24;;;;;;;31.53;9.33;;;8.70;99.90;;;;;;5041255;28;40434;-75
2020/12/20 10:13:55;;;;;;;34.47;10.33;;;8.70;99.90;;;;;;5045501;28;38241;-75
2020/12/20 10:16:21;;;;;;;32.20;10.30;;;8.80;99.90;;;;;;5048411;28;37500;-76
2020/12/20 10:18:47;;;;;;;35.73;10.73;;;8.80;99.90;;;;;;5057228;28;37717;-75
2020/12/20 10:21:14;;;;;;;36.60;12.83;;;8.80;99.90;;;;;;5064591;28;37882;-75
2020/12/20 10:23:40;;;;;;;34.63;10.67;;;8.80;99.90;;;;;;5046068;28;38321;-75
2020/12/20 10:26:10;;;;;;;34.30;11.43;;;8.70;99.90;;;;;;5043566;28;38173;-75
2020/12/20 10:28:40;;;;;;;33.33;12.17;;;8.80;99.90;;;;;;5055792;28;38903;-77
2020/12/20 10:31:06;;;;;;;36.73;12.53;;;8.80;99.90;;;;;;5046660;28;38653;-74
2020/12/20 10:33:33;;;;;;;34.27;12.17;;;8.90;99.90;;;;;;5044563;28;39067;-75
2020/12/20 10:35:59;;;;;;;30.30;11.20;;;8.90;99.90;;;;;;5043284;28;36905;-74
2020/12/20 10:38:25;;;;;;;37.20;11.87;;;9.00;99.90;;;;;;5056229;28;39233;-76
2020/12/20 10:40:51;;;;;;;33.90;12.30;;;9.10;99.90;;;;;;5039840;28;41225;-78
2020/12/20 10:43:21;;;;;;;33.63;10.53;;;9.10;99.90;;;;;;5042720;28;38446;-76
2020/12/20 10:45:47;;;;;;;40.33;11.37;;;9.20;99.90;;;;;;5042174;28;36917;-74
2020/12/20 10:48:13;;;;;;;29.53;11.53;;;9.30;99.90;;;;;;5040879;28;39707;-73
2020/12/20 10:50:39;;;;;;;32.87;11.67;;;9.30;99.90;;;;;;5059613;28;41354;-74
2020/12/20 10:53:05;;;;;;;34.77;9.80;;;9.40;99.90;;;;;;5044972;28;38456;-73
2020/12/20 10:55:31;;;;;;;28.17;10.90;;;9.50;99.90;;;;;;5050740;28;36463;-73
2020/12/20 10:57:57;;;;;;;31.03;9.80;;;9.60;99.90;;;;;;5047656;28;38910;-76
2020/12/20 11:00:28;;;;;;;27.00;9.87;;;9.60;99.90;;;;;;5043407;28;39002;-75
2020/12/20 11:02:54;;;;;;;33.30;10.03;;;9.60;99.90;;;;;;5040770;28;40169;-75
2020/12/20 11:05:28;;;;;;;28.53;8.70;;;9.60;99.90;;;;;;5047563;28;37591;-78
2020/12/20 11:07:54;;;;;;;26.47;8.80;;;9.70;99.90;;;;;;5061754;28;39707;-75
2020/12/20 11:10:21;;;;;;;31.23;8.00;;;9.70;99.90;;;;;;5045424;28;39307;-76
2020/12/20 11:12:48;;;;;;;33.57;10.00;;;9.70;99.90;;;;;;5039244;28;38490;-75
2020/12/20 11:15:14;;;;;;;29.43;8.07;;;9.70;99.90;;;;;;5026318;28;38233;-75
2020/12/20 11:17:46;;;;;;;41.37;8.90;;;9.80;99.90;;;;;;5059217;28;39651;-75
2020/12/20 11:20:15;;;;;;;27.48;8.55;;;9.80;99.90;;;;;;5036790;28;37601;-75
2020/12/20 11:22:43;;;;;;;26.57;8.83;;;9.80;99.90;;;;;;5044826;28;38509;-74
2020/12/20 11:25:10;;;;;;;25.67;8.33;;;9.90;99.90;;;;;;5044160;28;38157;-75
2020/12/20 11:27:44;;;;;;;28.80;9.10;;;9.90;99.90;;;;;;5045132;28;39552;-74
2020/12/20 11:30:10;;;;;;;32.80;9.33;;;9.90;99.90;;;;;;5020443;28;38400;-75
2020/12/20 11:32:49;;;;;;;35.03;8.90;;;9.90;99.90;;;;;;5032770;28;39106;-75
2020/12/20 11:35:21;;;;;;;36.10;10.47;;;9.90;99.90;;;;;;5053332;28;36139;-75
2020/12/20 11:37:48;;;;;;;27.30;8.73;;;9.90;99.90;;;;;;5042440;28;39395;-75
2020/12/20 11:40:14;;;;;;;33.70;9.07;;;9.90;99.90;;;;;;5041013;28;39353;-75
2020/12/20 11:42:40;;;;;;;30.77;8.80;;;10.00;99.90;;;;;;5041191;28;37327;-75
2020/12/20 11:45:06;;;;;;;27.57;8.33;;;10.00;99.90;;;;;;5063314;28;37925;-74
2020/12/20 11:47:36;;;;;;;37.50;9.80;;;10.00;99.90;;;;;;5039738;28;38587;-75
2020/12/20 11:50:03;;;;;;;25.47;7.30;;;10.10;99.90;;;;;;5042359;28;38829;-75
2020/12/20 11:52:33;;;;;;;29.77;8.27;;;10.10;99.90;;;;;;5045319;28;39639;-75
2020/12/20 11:54:59;;;;;;;28.67;8.47;;;10.10;99.90;;;;;;5042739;28;37498;-75
2020/12/20 11:57:25;;;;;;;28.80;7.20;;;10.10;99.90;;;;;;5040889;28;40821;-76
2020/12/20 11:59:51;;;;;;;25.03;7.30;;;10.10;99.90;;;;;;5050613;28;38716;-76
2020/12/20 12:02:18;;;;;;;23.83;6.80;;;10.10;99.90;;;;;;5038993;28;39466;-77
2020/12/20 12:04:44;;;;;;;31.83;7.77;;;10.20;99.90;;;;;;5036619;28;37750;-76
2020/12/20 12:07:10;;;;;;;27.80;7.23;;;10.20;99.90;;;;;;5041737;28;37268;-76
2020/12/20 12:09:36;;;;;;;33.07;7.93;;;10.20;99.90;;;;;;5042049;28;38753;-76
2020/12/20 12:12:02;;;;;;;32.43;7.60;;;10.20;99.90;;;;;;5041989;28;38250;-76
2020/12/20 12:14:28;;;;;;;26.17;7.10;;;10.20;99.90;;;;;;5042010;28;37242;-76
2020/12/20 12:16:54;;;;;;;21.10;6.83;;;10.20;99.90;;;;;;5041442;28;37874;-76
2020/12/20 12:19:20;;;;;;;25.33;7.10;;;10.20;99.90;;;;;;5057127;28;37827;-75
2020/12/20 12:21:49;;;;;;;25.73;7.07;;;10.20;99.90;;;;;;5056727;28;37397;-76
2020/12/20 12:24:15;;;;;;;25.60;7.63;;;10.30;99.90;;;;;;5044405;28;36619;-76
2020/12/20 12:26:49;;;;;;;24.10;6.63;;;10.30;99.90;;;;;;5058237;28;38984;-75
2020/12/20 12:29:15;;;;;;;25.03;6.40;;;10.20;99.90;;;;;;5039062;28;38742;-76
2020/12/20 12:31:41;;;;;;;32.70;6.93;;;10.20;99.90;;;;;;5040031;28;38334;-75
2020/12/20 12:34:07;;;;;;;27.17;7.23;;;10.20;99.90;;;;;;5058648;28;37248;-76
2020/12/20 12:36:33;;;;;;;34.73;8.40;;;10.20;99.90;;;;;;5058076;28;39252;-76
2020/12/20 12:39:02;;;;;;;30.53;7.17;;;10.10;99.90;;;;;;5041490;28;39385;-76
2020/12/20 12:41:29;;;;;;;26.47;7.93;;;10.10;99.90;;;;;;5028655;28;47161;-76
2020/12/20 12:43:58;;;;;;;22.10;6.83;;;10.20;99.90;;;;;;5039109;28;37973;-76
2020/12/20 12:46:24;;;;;;;32.43;7.50;;;10.20;99.90;;;;;;5041242;28;37624;-77
2020/12/20 12:48:50;;;;;;;28.27;7.90;;;10.20;99.90;;;;;;5056924;28;38716;-76
2020/12/20 12:51:24;;;;;;;36.17;8.40;;;10.20;99.90;;;;;;5039346;28;37333;-76
2020/12/20 12:53:50;;;;;;;30.80;8.27;;;10.20;99.90;;;;;;5058427;28;37381;-75
2020/12/20 12:56:17;;;;;;;22.40;7.80;;;10.20;99.90;;;;;;5050328;28;38160;-75
2020/12/20 12:58:43;;;;;;;33.47;9.37;;;10.10;99.90;;;;;;5042434;28;37959;-75